createdAt,value
2023-03-24T00:01:30.486Z,14.80
2023-03-24T00:03:59.250Z,14.80
2023-03-24T00:06:27.915Z,14.80
2023-03-24T00:08:56.375Z,14.80
2023-03-24T00:11:26.583Z,14.80
2023-03-24T00:13:58.589Z,14.80
2023-03-24T00:16:27.402Z,14.80
2023-03-24T00:18:56.136Z,14.80
2023-03-24T00:21:25.948Z,14.80
2023-03-24T00:23:56.045Z,14.80
2023-03-24T00:26:26.827Z,14.80
2023-03-24T00:28:55.843Z,14.80
2023-03-24T00:31:25.803Z,14.80
2023-03-24T00:33:54.994Z,14.80
2023-03-24T00:36:25.840Z,14.80
2023-03-24T00:38:56.417Z,14.80
2023-03-24T00:41:27.529Z,14.80
2023-03-24T00:43:58.576Z,14.90
2023-03-24T00:46:30.829Z,14.90
2023-03-24T00:49:05.941Z,14.90
2023-03-24T00:51:37.492Z,14.90
2023-03-24T00:54:06.629Z,14.90
2023-03-24T00:56:40.480Z,14.80
2023-03-24T00:59:10.498Z,14.80
2023-03-24T01:01:41.521Z,14.90
2023-03-24T01:04:11.361Z,14.90
2023-03-24T01:06:41.415Z,14.60
2023-03-24T01:09:12.994Z,14.90
2023-03-24T01:11:44.137Z,14.90
2023-03-24T01:14:13.896Z,14.90
2023-03-24T01:16:43.586Z,14.90
2023-03-24T01:19:12.287Z,14.90
2023-03-24T01:21:42.300Z,14.60
2023-03-24T01:24:11.220Z,14.90
2023-03-24T01:26:39.756Z,14.90
2023-03-24T01:29:09.765Z,14.90
2023-03-24T01:31:38.224Z,14.90
2023-03-24T01:34:07.154Z,14.90
2023-03-24T01:36:35.746Z,14.90
2023-03-24T01:39:05.321Z,14.90
2023-03-24T01:41:35.939Z,14.90
2023-03-24T01:44:28.378Z,14.90
2023-03-24T01:46:57.832Z,14.90
2023-03-24T01:49:30.022Z,14.90
2023-03-24T01:52:03.342Z,14.90
2023-03-24T01:54:34.838Z,14.90
2023-03-24T01:57:10.928Z,14.90
2023-03-24T01:59:46.402Z,14.90
2023-03-24T02:02:44.906Z,14.90
2023-03-24T02:05:16.357Z,14.90
2023-03-24T02:07:54.383Z,14.90
2023-03-24T02:10:24.708Z,14.90
2023-03-24T02:12:53.164Z,14.90
2023-03-24T02:15:25.415Z,14.90
2023-03-24T02:18:06.474Z,14.90
2023-03-24T02:21:04.488Z,14.90
2023-03-24T02:24:07.028Z,14.90
2023-03-24T02:26:48.951Z,14.90
2023-03-24T02:29:46.954Z,14.90
2023-03-24T02:33:11.377Z,14.90
2023-03-24T02:36:28.051Z,14.90
2023-03-24T02:39:53.409Z,15.00
2023-03-24T02:42:43.073Z,14.90
2023-03-24T02:45:23.840Z,14.90
2023-03-24T02:48:05.173Z,14.90
2023-03-24T02:50:40.642Z,15.00
2023-03-24T02:53:16.616Z,15.00
2023-03-24T02:56:12.965Z,15.00
2023-03-24T02:58:48.330Z,15.00
2023-03-24T03:01:32.234Z,15.00
2023-03-24T03:04:25.978Z,15.00
2023-03-24T03:06:59.979Z,15.00
2023-03-24T03:09:30.033Z,15.00
2023-03-24T03:12:01.307Z,15.00
2023-03-24T03:14:36.812Z,15.00
2023-03-24T03:17:10.808Z,15.00
2023-03-24T03:19:43.416Z,15.00
2023-03-24T03:22:16.833Z,15.00
2023-03-24T03:24:50.473Z,15.00
2023-03-24T03:27:21.995Z,15.00
2023-03-24T03:29:57.874Z,15.00
2023-03-24T03:32:30.639Z,15.00
2023-03-24T03:35:06.799Z,15.00
2023-03-24T03:37:44.831Z,15.00
2023-03-24T03:40:20.605Z,15.00
2023-03-24T03:42:53.870Z,15.00
2023-03-24T03:45:23.678Z,15.00
2023-03-24T03:47:52.643Z,15.00
2023-03-24T03:50:21.933Z,15.00
2023-03-24T03:52:52.213Z,15.00
2023-03-24T03:55:21.045Z,15.00
2023-03-24T03:57:49.692Z,15.00
2023-03-24T04:00:30.313Z,15.00
2023-03-24T04:03:34.613Z,15.00
2023-03-24T04:06:08.974Z,15.00
2023-03-24T04:08:49.062Z,15.00
2023-03-24T04:11:47.784Z,15.00
2023-03-24T04:15:03.753Z,14.90
2023-03-24T04:18:01.678Z,14.90
2023-03-24T04:20:56.618Z,14.90
2023-03-24T04:23:31.964Z,14.90
2023-03-24T04:26:12.139Z,14.90
2023-03-24T04:28:48.573Z,14.80
2023-03-24T04:31:23.637Z,14.80
2023-03-24T04:33:58.461Z,14.80
2023-03-24T04:36:32.113Z,14.80
2023-03-24T04:39:25.625Z,14.80
2023-03-24T04:41:56.464Z,14.70
2023-03-24T04:44:28.868Z,14.70
2023-03-24T04:47:20.457Z,14.70
2023-03-24T04:50:09.254Z,14.70
2023-03-24T04:52:37.659Z,14.70
2023-03-24T04:55:30.134Z,14.60
2023-03-24T04:57:58.461Z,14.60
2023-03-24T05:00:27.673Z,14.60
2023-03-24T05:02:56.396Z,14.60
2023-03-24T05:05:29.159Z,14.60
2023-03-24T05:07:58.031Z,14.50
2023-03-24T05:10:26.431Z,14.40
2023-03-24T05:12:57.308Z,14.30
2023-03-24T05:15:44.822Z,14.30
2023-03-24T05:18:25.271Z,14.30
2023-03-24T05:20:55.087Z,14.20
2023-03-24T05:23:23.998Z,14.10
2023-03-24T05:25:52.780Z,14.00
2023-03-24T05:28:24.261Z,14.10
2023-03-24T05:30:56.199Z,14.10
2023-03-24T05:33:38.176Z,14.10
2023-03-24T05:36:09.173Z,14.10
2023-03-24T05:38:37.972Z,14.00
2023-03-24T05:41:07.080Z,14.10
2023-03-24T05:43:41.649Z,14.00
2023-03-24T05:46:16.290Z,14.00
2023-03-24T05:48:46.930Z,13.90
2023-03-24T05:51:21.490Z,13.90
2023-03-24T05:53:59.335Z,13.70
2023-03-24T05:56:33.851Z,13.70
2023-03-24T05:59:19.214Z,13.70
2023-03-24T06:02:08.976Z,13.70
2023-03-24T06:05:08.320Z,13.60
2023-03-24T06:07:38.432Z,13.60
2023-03-24T06:10:07.989Z,13.60
2023-03-24T06:12:47.231Z,13.50
2023-03-24T06:15:17.605Z,13.50
2023-03-24T06:17:48.208Z,13.50
2023-03-24T06:20:33.285Z,13.50
2023-03-24T06:23:27.703Z,13.50
2023-03-24T06:26:11.540Z,13.50
2023-03-24T06:28:51.999Z,13.50
2023-03-24T06:31:24.070Z,13.60
2023-03-24T06:33:54.294Z,13.50
2023-03-24T06:36:25.828Z,13.50
2023-03-24T06:38:56.389Z,13.50
2023-03-24T06:41:26.224Z,13.60
2023-03-24T06:43:58.826Z,13.50
2023-03-24T06:46:27.495Z,13.60
2023-03-24T06:48:56.590Z,13.60
2023-03-24T06:51:25.129Z,13.60
2023-03-24T06:53:54.989Z,13.60
2023-03-24T06:56:24.604Z,13.60
2023-03-24T06:58:58.155Z,13.60
2023-03-24T07:01:36.356Z,13.60
2023-03-24T07:04:36.495Z,13.60
2023-03-24T07:10:21.833Z,13.70
2023-03-24T07:12:51.217Z,13.70
2023-03-24T07:15:19.842Z,13.70
2023-03-24T07:17:48.520Z,13.70
2023-03-24T07:20:33.155Z,13.70
2023-03-24T07:23:10.484Z,13.70
2023-03-24T07:25:51.409Z,13.70
2023-03-24T07:28:38.177Z,13.70
2023-03-24T07:31:10.995Z,13.80
2023-03-24T07:33:41.423Z,13.80
2023-03-24T07:36:10.670Z,13.80
2023-03-24T07:38:41.232Z,13.80
2023-03-24T07:41:16.840Z,13.80
2023-03-24T07:43:52.121Z,13.80
2023-03-24T07:46:25.862Z,13.80
2023-03-24T07:48:54.767Z,13.80
2023-03-24T07:51:24.815Z,13.80
2023-03-24T07:54:03.384Z,13.80
2023-03-24T07:56:40.676Z,13.80
2023-03-24T07:59:10.952Z,13.80
2023-03-24T08:02:05.010Z,13.80
2023-03-24T08:04:48.256Z,13.90
2023-03-24T08:07:37.186Z,13.90
2023-03-24T08:10:09.930Z,13.90
2023-03-24T08:12:40.372Z,13.90
2023-03-24T08:15:10.569Z,13.90
2023-03-24T08:17:39.658Z,13.90
2023-03-24T08:20:13.350Z,13.90
2023-03-24T08:22:43.111Z,13.90
2023-03-24T08:25:13.609Z,13.90
2023-03-24T08:27:44.912Z,13.90
2023-03-24T08:30:17.745Z,13.90
2023-03-24T08:32:47.501Z,13.90
2023-03-24T08:35:19.818Z,13.90
2023-03-24T08:37:48.600Z,13.90
2023-03-24T08:40:20.535Z,13.90
2023-03-24T08:42:52.901Z,13.90
2023-03-24T08:45:23.810Z,13.90
2023-03-24T08:47:53.629Z,13.90
2023-03-24T08:50:26.040Z,13.90
2023-03-24T08:52:56.326Z,13.90
2023-03-24T08:55:26.523Z,13.90
2023-03-24T08:57:57.687Z,13.90
2023-03-24T09:00:26.693Z,13.90
2023-03-24T09:02:56.735Z,14.00
2023-03-24T09:05:40.947Z,14.00
2023-03-24T09:08:13.137Z,13.90
2023-03-24T09:10:42.408Z,14.00
2023-03-24T09:13:12.451Z,14.00
2023-03-24T09:15:41.235Z,14.00
2023-03-24T09:18:09.788Z,14.00
2023-03-24T09:20:38.060Z,14.00
2023-03-24T09:23:06.597Z,14.00
2023-03-24T09:25:35.073Z,14.00
2023-03-24T09:28:03.743Z,14.10
2023-03-24T09:30:35.174Z,14.10
2023-03-24T09:33:05.313Z,14.10
2023-03-24T09:35:33.821Z,14.10
2023-03-24T09:38:02.478Z,14.10
2023-03-24T09:40:32.956Z,14.10
2023-03-24T09:43:04.723Z,14.10
2023-03-24T09:45:43.878Z,14.10
2023-03-24T09:48:18.065Z,14.20
2023-03-24T09:50:54.415Z,14.10
2023-03-24T09:53:33.170Z,14.10
2023-03-24T09:56:10.700Z,14.10
2023-03-24T09:58:41.651Z,14.10
2023-03-24T10:01:16.272Z,14.10
2023-03-24T10:03:46.779Z,14.10
2023-03-24T10:06:23.159Z,14.10
2023-03-24T10:08:57.488Z,14.10
2023-03-24T10:11:33.080Z,14.10
2023-03-24T10:14:12.461Z,14.10
2023-03-24T10:16:49.975Z,14.10
2023-03-24T10:19:31.574Z,14.10
2023-03-24T10:22:06.823Z,14.10
2023-03-24T10:24:44.649Z,14.10
2023-03-24T10:27:22.423Z,14.10
2023-03-24T10:29:55.722Z,14.20
2023-03-24T10:32:29.471Z,14.10
2023-03-24T10:35:07.609Z,14.10
2023-03-24T10:37:36.614Z,14.10
2023-03-24T10:40:18.065Z,14.10
2023-03-24T10:42:49.883Z,14.10
2023-03-24T10:45:38.381Z,14.10
2023-03-24T10:48:09.820Z,14.10
2023-03-24T10:50:43.969Z,14.10
2023-03-24T10:53:20.053Z,14.20
2023-03-24T10:55:50.732Z,14.20
2023-03-24T10:58:27.024Z,14.20
2023-03-24T11:00:56.355Z,14.20
2023-03-24T11:03:30.003Z,14.20
2023-03-24T11:06:03.328Z,14.30
2023-03-24T11:08:37.045Z,14.30
2023-03-24T11:11:17.135Z,14.30
2023-03-24T11:13:57.148Z,14.30
2023-03-24T11:16:30.825Z,14.40
2023-03-24T11:19:03.049Z,14.40
2023-03-24T11:21:33.478Z,14.40
2023-03-24T11:24:04.643Z,14.50
2023-03-24T11:26:35.653Z,14.40
2023-03-24T11:29:09.987Z,14.40
2023-03-24T11:31:40.159Z,14.40
2023-03-24T11:34:14.932Z,14.50
2023-03-24T11:36:48.163Z,14.50
2023-03-24T11:39:20.041Z,14.50
2023-03-24T11:42:03.787Z,14.50
2023-03-24T11:44:42.854Z,14.50
2023-03-24T11:47:14.296Z,14.50
2023-03-24T11:49:51.625Z,14.50
2023-03-24T11:52:24.825Z,14.50
2023-03-24T11:54:53.613Z,14.60
2023-03-24T11:57:34.803Z,14.50
2023-03-24T12:00:10.806Z,14.60
2023-03-24T12:03:00.936Z,14.60
2023-03-24T12:05:38.346Z,14.60
2023-03-24T12:08:32.038Z,14.70
2023-03-24T12:11:21.774Z,14.70
2023-03-24T12:13:51.621Z,14.70
2023-03-24T12:16:39.331Z,14.70
2023-03-24T12:19:41.021Z,14.70
2023-03-24T12:22:23.546Z,14.80
2023-03-24T12:25:32.717Z,14.80
2023-03-24T12:28:20.037Z,14.80
2023-03-24T12:31:00.268Z,14.80
2023-03-24T12:33:39.745Z,14.80
2023-03-24T12:36:20.115Z,14.90
2023-03-24T12:39:09.712Z,14.80
2023-03-24T12:42:01.334Z,14.80
2023-03-24T12:44:55.460Z,14.90
2023-03-24T12:47:37.318Z,14.90
2023-03-24T12:50:20.308Z,14.90
2023-03-24T12:55:39.412Z,14.90
2023-03-24T12:58:15.936Z,14.90
2023-03-24T13:00:52.589Z,14.90
2023-03-24T13:03:28.332Z,15.00
2023-03-24T13:06:07.228Z,14.90
2023-03-24T13:08:40.061Z,14.90
2023-03-24T13:11:19.274Z,14.90
2023-03-24T13:14:01.203Z,14.90
2023-03-24T13:16:35.640Z,14.90
2023-03-24T13:19:04.408Z,14.90
2023-03-24T13:21:35.413Z,14.90
2023-03-24T13:24:10.528Z,14.90
2023-03-24T13:26:45.779Z,14.90
2023-03-24T13:29:45.746Z,14.90
2023-03-24T13:32:27.462Z,14.90
2023-03-24T13:35:01.298Z,15.00
2023-03-24T13:37:36.312Z,15.00
2023-03-24T13:40:12.119Z,15.00
2023-03-24T13:42:49.040Z,15.00
2023-03-24T13:45:27.290Z,15.00
2023-03-24T13:48:06.935Z,15.10
2023-03-24T13:50:38.477Z,15.10
2023-03-24T13:53:14.344Z,15.10
2023-03-24T13:55:50.647Z,15.20
2023-03-24T13:58:23.023Z,15.20
2023-03-24T14:01:17.530Z,15.20
2023-03-24T14:03:47.249Z,15.20
2023-03-24T14:06:18.184Z,15.30
2023-03-24T14:09:02.756Z,15.30
2023-03-24T14:11:49.437Z,15.30
2023-03-24T14:14:24.574Z,15.30
2023-03-24T14:17:03.564Z,15.30
2023-03-24T14:19:39.158Z,15.20
2023-03-24T14:22:14.383Z,15.20
2023-03-24T14:24:48.319Z,15.10
2023-03-24T14:27:38.945Z,14.90
2023-03-24T14:30:19.712Z,14.80
2023-03-24T14:32:49.859Z,14.70
2023-03-24T14:35:31.492Z,14.40
2023-03-24T14:38:03.026Z,14.60
2023-03-24T14:40:36.432Z,14.60
2023-03-24T14:43:20.362Z,14.60
2023-03-24T14:46:06.747Z,14.70
2023-03-24T14:48:44.074Z,14.70
2023-03-24T14:51:27.746Z,14.70
2023-03-24T14:53:59.149Z,14.80
2023-03-24T14:56:33.003Z,14.90
2023-03-24T14:59:06.715Z,15.00
2023-03-24T15:01:39.616Z,14.80
2023-03-24T15:04:09.566Z,15.10
2023-03-24T15:06:46.970Z,15.10
2023-03-24T15:09:17.896Z,15.20
2023-03-24T15:11:49.178Z,15.20
2023-03-24T15:14:22.934Z,15.20
2023-03-24T15:16:59.836Z,15.20
2023-03-24T15:19:30.630Z,15.30
2023-03-24T15:22:02.725Z,15.30
2023-03-24T15:24:34.162Z,15.30
2023-03-24T15:27:26.299Z,15.30
2023-03-24T15:29:57.717Z,15.20
2023-03-24T15:32:31.917Z,15.20
2023-03-24T15:35:05.777Z,15.20
2023-03-24T15:37:40.087Z,15.10
2023-03-24T15:40:33.796Z,15.00
2023-03-24T15:43:04.115Z,14.80
2023-03-24T15:45:35.159Z,14.60
2023-03-24T15:48:13.818Z,14.50
2023-03-24T15:50:55.390Z,14.40
2023-03-24T15:53:27.376Z,14.30
2023-03-24T15:56:15.565Z,14.20
2023-03-24T15:58:51.905Z,14.20
2023-03-24T16:01:25.855Z,14.10
2023-03-24T16:03:56.345Z,14.10
2023-03-24T16:06:31.045Z,14.00
2023-03-24T16:09:02.049Z,14.00
2023-03-24T16:11:31.164Z,14.00
2023-03-24T16:14:00.368Z,14.00
2023-03-24T16:16:30.967Z,14.00
2023-03-24T16:19:01.458Z,14.00
2023-03-24T16:21:31.608Z,14.00
2023-03-24T16:24:00.655Z,13.90
2023-03-24T16:26:31.402Z,14.00
2023-03-24T16:29:04.489Z,14.00
2023-03-24T16:31:35.589Z,14.00
2023-03-24T16:34:05.551Z,14.00
2023-03-24T16:36:34.345Z,14.00
2023-03-24T16:39:03.659Z,14.00
2023-03-24T16:41:32.144Z,14.00
2023-03-24T16:44:00.495Z,14.10
2023-03-24T16:46:33.483Z,14.10
2023-03-24T16:49:03.193Z,14.10
2023-03-24T16:51:33.427Z,14.10
2023-03-24T16:54:02.636Z,14.20
2023-03-24T16:56:31.322Z,14.20
2023-03-24T16:59:00.302Z,14.30
2023-03-24T17:01:33.583Z,14.20
2023-03-24T17:04:04.444Z,14.30
2023-03-24T17:06:34.841Z,14.30
2023-03-24T17:09:04.510Z,14.30
2023-03-24T17:11:36.026Z,14.30
2023-03-24T17:14:07.296Z,14.30
2023-03-24T17:16:38.435Z,14.30
2023-03-24T17:19:07.505Z,14.30
2023-03-24T17:21:41.113Z,14.30
2023-03-24T17:24:10.823Z,14.30
2023-03-24T17:26:39.452Z,14.30
2023-03-24T17:29:08.517Z,14.30
2023-03-24T17:31:37.162Z,14.30
2023-03-24T17:34:15.208Z,14.20
2023-03-24T17:36:51.858Z,14.30
2023-03-24T17:39:22.181Z,14.30
2023-03-24T17:41:51.092Z,14.20
2023-03-24T17:44:19.534Z,14.20
2023-03-24T17:46:47.980Z,14.20
2023-03-24T17:49:16.595Z,14.20
2023-03-24T17:51:45.313Z,14.20
2023-03-24T17:54:16.812Z,14.20
2023-03-24T17:56:45.390Z,14.20
2023-03-24T17:59:13.781Z,14.20
2023-03-24T18:01:42.239Z,14.20
2023-03-24T18:04:10.845Z,14.20
2023-03-24T18:06:42.000Z,14.20
2023-03-24T18:09:10.518Z,14.10
2023-03-24T18:11:40.841Z,14.10
2023-03-24T18:14:09.363Z,14.20
2023-03-24T18:16:39.358Z,14.10
2023-03-24T18:19:08.217Z,14.10
2023-03-24T18:21:36.802Z,14.10
2023-03-24T18:24:06.514Z,14.10
2023-03-24T18:26:35.229Z,14.10
2023-03-24T18:29:05.699Z,14.10
2023-03-24T18:31:34.716Z,14.10
2023-03-24T18:34:04.181Z,14.10
2023-03-24T18:36:32.760Z,14.10
2023-03-24T18:39:04.142Z,14.10
2023-03-24T18:41:36.764Z,14.10
2023-03-24T18:44:08.953Z,14.10
2023-03-24T18:46:39.716Z,14.00
2023-03-24T18:49:08.610Z,14.10
2023-03-24T18:51:36.991Z,14.10
2023-03-24T18:54:06.549Z,14.00
2023-03-24T18:56:35.086Z,14.10
2023-03-24T18:59:03.385Z,14.10
2023-03-24T19:01:33.362Z,14.10
2023-03-24T19:04:02.398Z,14.10
2023-03-24T19:06:32.104Z,14.10
2023-03-24T19:09:00.646Z,14.10
2023-03-24T19:11:29.329Z,14.10
2023-03-24T19:13:59.370Z,14.10
2023-03-24T19:16:28.620Z,14.10
2023-03-24T19:19:00.161Z,14.10
2023-03-24T19:21:28.718Z,14.10
2023-03-24T19:23:58.057Z,14.10
2023-03-24T19:26:26.574Z,14.10
2023-03-24T19:28:55.390Z,14.10
2023-03-24T19:31:24.076Z,14.10
2023-03-24T19:33:58.472Z,14.10
2023-03-24T19:36:27.802Z,14.10
2023-03-24T19:38:56.872Z,14.10
2023-03-24T19:41:26.446Z,14.10
2023-03-24T19:43:55.432Z,14.10
2023-03-24T19:46:23.966Z,14.00
2023-03-24T19:48:52.436Z,14.00
2023-03-24T19:51:23.811Z,14.00
2023-03-24T19:53:52.273Z,13.90
2023-03-24T19:56:21.926Z,13.90
2023-03-24T19:58:50.377Z,13.90
2023-03-24T20:01:19.357Z,13.90
2023-03-24T20:03:47.830Z,13.90
2023-03-24T20:06:17.849Z,13.90
2023-03-24T20:08:49.498Z,13.80
2023-03-24T20:11:17.864Z,13.80
2023-03-24T20:13:46.285Z,13.80
2023-03-24T20:16:14.843Z,13.80
2023-03-24T20:18:43.334Z,13.80
2023-03-24T20:21:13.292Z,13.80
2023-03-24T20:23:41.862Z,13.80
2023-03-24T20:26:11.969Z,13.80
2023-03-24T20:28:40.583Z,13.80
2023-03-24T20:31:09.248Z,13.80
2023-03-24T20:33:37.665Z,13.80
2023-03-24T20:36:06.985Z,13.80
2023-03-24T20:38:35.505Z,13.80
2023-03-24T20:41:06.249Z,13.80
2023-03-24T20:43:37.510Z,13.80
2023-03-24T20:46:07.759Z,13.80
2023-03-24T20:48:36.862Z,13.80
2023-03-24T20:51:05.826Z,13.80
2023-03-24T20:53:35.899Z,13.80
2023-03-24T20:56:07.150Z,13.80
2023-03-24T20:58:38.753Z,13.80
2023-03-24T21:01:08.805Z,13.80
2023-03-24T21:03:37.620Z,13.80
2023-03-24T21:06:06.544Z,13.80
2023-03-24T21:08:34.916Z,13.70
2023-03-24T21:11:03.306Z,13.70
2023-03-24T21:13:37.421Z,13.70
2023-03-24T21:16:09.178Z,13.80
2023-03-24T21:18:38.562Z,13.70
2023-03-24T21:21:12.315Z,13.70
2023-03-24T21:23:41.866Z,13.70
2023-03-24T21:26:13.315Z,13.70
2023-03-24T21:28:42.156Z,13.70
2023-03-24T21:31:13.274Z,13.70
2023-03-24T21:33:43.631Z,13.70
2023-03-24T21:36:13.316Z,13.70
2023-03-24T21:38:42.585Z,13.70
2023-03-24T21:41:11.964Z,13.60
2023-03-24T21:43:40.985Z,13.60
2023-03-24T21:46:14.976Z,13.60
2023-03-24T21:48:50.078Z,13.60
2023-03-24T21:51:20.475Z,13.60
2023-03-24T21:53:49.217Z,13.60
2023-03-24T21:56:17.640Z,13.60
2023-03-24T21:58:46.465Z,13.60
2023-03-24T22:01:15.021Z,13.60
2023-03-24T22:03:46.500Z,13.60
2023-03-24T22:06:15.291Z,13.50
2023-03-24T22:08:44.672Z,13.60
2023-03-24T22:11:15.464Z,13.60
2023-03-24T22:13:43.868Z,13.60
2023-03-24T22:16:12.250Z,13.50
2023-03-24T22:18:40.628Z,13.50
2023-03-24T22:21:12.550Z,13.50
2023-03-24T22:23:42.822Z,13.60
2023-03-24T22:26:13.751Z,13.50
2023-03-24T22:28:43.591Z,13.50
2023-03-24T22:31:14.611Z,13.50
2023-03-24T22:33:44.490Z,13.50
2023-03-24T22:36:14.542Z,13.50
2023-03-24T22:38:43.475Z,13.50
2023-03-24T22:41:13.365Z,13.50
2023-03-24T22:43:42.677Z,13.50
2023-03-24T22:46:11.946Z,13.50
2023-03-24T22:48:40.778Z,13.40
2023-03-24T22:51:09.903Z,13.40
2023-03-24T22:53:41.520Z,13.40
2023-03-24T22:56:10.436Z,13.40
2023-03-24T22:58:40.125Z,13.40
2023-03-24T23:01:10.101Z,13.40
2023-03-24T23:03:38.458Z,13.40
2023-03-24T23:06:09.155Z,13.40
2023-03-24T23:08:40.177Z,13.30
2023-03-24T23:11:09.759Z,13.30
2023-03-24T23:13:38.803Z,13.30
2023-03-24T23:16:08.235Z,13.30
2023-03-24T23:18:36.923Z,13.30
2023-03-24T23:21:08.074Z,13.30
2023-03-24T23:23:41.880Z,13.30
2023-03-24T23:26:25.118Z,13.20
2023-03-24T23:28:54.984Z,13.20
2023-03-24T23:31:26.198Z,13.20
2023-03-24T23:33:56.356Z,13.20
2023-03-24T23:36:28.482Z,13.20
2023-03-24T23:38:58.364Z,13.20
2023-03-24T23:41:26.899Z,13.20
2023-03-24T23:43:55.820Z,13.20
2023-03-24T23:46:25.032Z,13.10
2023-03-24T23:48:53.516Z,13.10
2023-03-24T23:51:22.101Z,13.20
2023-03-24T23:53:50.886Z,13.20
2023-03-24T23:56:22.762Z,13.10
2023-03-24T23:58:51.156Z,13.10
